Main page
METAR-TAF:

METAR-TAF

Airports :

Angads Airport

Oujda, Morocco

latitude: 34-47N, longitude: 001-56W, elevation: 468 m

Current weather observation

The report was made 32 minutes ago, at 15:30 UTC
Wind 11 kt from the Northwest
Temperature 14°C
Humidity 58%
Pressure 1022 hPa
Visibility 10 km or more
Few clouds at a height of 2300 ft
Scattered clouds at a height of 11000 ft
Broken clouds at a height of 23000 ft

METAR: GMFO 231530Z 32011KT 9999 FEW023 SCT110 BKN230 14/06 Q1022 NOSIG

Time: 17:02 (16:02 UTC)

Forecast

The report was made 5 hours and 2 minutes ago, at 11:00 UTC
Forecast valid from 23 at 12 UTC to 24 at 18 UTC
Wind 4 kt from the North
Visibility 10 km or more
no clouds below 1500 m and no cumulonimbus

TAF: GMFO 231100Z 2312/2418 36004KT CAVOK

Weather observations and forecasts of more than 4000 airports (METAR and TAF reports).

The available stations are represented by yellow and red dots on the map.

Hover mouse over dot to see the name of the station.

Then click to see weather observations and forecasts.

To change the map : click on the green buttons with a black cross to zoom in, on the green button with a dash to zoom out, or on the green arrows for adjacent maps.


METAR-TAF: